createdAt,value
2022-09-29T00:02:08.912Z,99732.47
2022-09-29T00:04:35.471Z,99739.47
2022-09-29T00:07:01.949Z,99737.84
2022-09-29T00:09:28.613Z,99742.22
2022-09-29T00:11:55.870Z,99741.41
2022-09-29T00:14:23.429Z,99738.81
2022-09-29T00:16:50.702Z,99738.66
2022-09-29T00:19:17.672Z,99744.00
2022-09-29T00:21:44.220Z,99737.22
2022-09-29T00:24:11.102Z,99739.22
2022-09-29T00:26:37.644Z,99736.97
2022-09-29T00:29:04.648Z,99735.34
2022-09-29T00:31:33.799Z,99728.00
2022-09-29T00:34:00.398Z,99730.94
2022-09-29T00:36:31.017Z,99725.34
2022-09-29T00:38:58.747Z,99734.25
2022-09-29T00:41:32.579Z,99731.06
2022-09-29T00:44:15.128Z,99734.19
2022-09-29T00:46:50.102Z,99733.09
2022-09-29T00:49:40.366Z,99737.84
2022-09-29T00:52:25.903Z,99733.38
2022-09-29T00:54:58.052Z,99733.31
2022-09-29T00:57:30.518Z,99731.28
2022-09-29T01:00:09.006Z,99727.59
2022-09-29T01:02:49.164Z,99729.94
2022-09-29T01:05:25.785Z,99726.47
2022-09-29T01:07:52.893Z,99726.22
2022-09-29T01:10:19.998Z,99728.31
2022-09-29T01:12:48.459Z,99726.91
2022-09-29T01:15:19.332Z,99723.88
2022-09-29T01:17:47.440Z,99722.66
2022-09-29T01:20:20.702Z,99730.75
2022-09-29T01:23:19.264Z,99723.34
2022-09-29T01:25:58.054Z,99728.84
2022-09-29T01:28:30.286Z,99723.22
2022-09-29T01:31:05.837Z,99725.38
2022-09-29T01:33:52.006Z,99733.66
2022-09-29T01:36:38.874Z,99734.94
2022-09-29T01:39:15.517Z,99736.13
2022-09-29T01:41:51.336Z,99739.06
2022-09-29T01:44:42.731Z,99742.16
2022-09-29T01:47:21.583Z,99742.50
2022-09-29T01:49:57.039Z,99740.25
2022-09-29T01:52:28.077Z,99754.34
2022-09-29T01:55:09.248Z,99743.56
2022-09-29T01:57:45.392Z,99746.47
2022-09-29T02:00:15.674Z,99743.28
2022-09-29T02:02:58.744Z,99749.56
2022-09-29T02:05:33.819Z,99753.31
2022-09-29T02:08:32.947Z,99744.16
2022-09-29T02:11:06.520Z,99744.50
2022-09-29T02:13:43.075Z,99745.63
2022-09-29T02:16:14.348Z,99752.13
2022-09-29T02:18:48.872Z,99751.31
2022-09-29T02:21:15.444Z,99750.84
2022-09-29T02:23:42.168Z,99748.63
2022-09-29T02:26:10.900Z,99753.16
2022-09-29T02:28:37.749Z,99752.50
2022-09-29T02:31:05.220Z,99750.28
2022-09-29T02:33:31.999Z,99759.19
2022-09-29T02:36:20.023Z,99755.16
2022-09-29T02:39:09.688Z,99748.75
2022-09-29T02:42:07.628Z,99754.22
2022-09-29T02:44:52.741Z,99753.59
2022-09-29T02:47:42.457Z,99751.53
2022-09-29T02:50:36.333Z,99750.09
2022-09-29T02:53:27.513Z,99742.69
2022-09-29T02:56:03.774Z,99750.63
2022-09-29T02:58:48.129Z,99754.00
2022-09-29T03:01:16.615Z,99754.97
2022-09-29T03:03:43.656Z,99755.94
2022-09-29T03:06:11.876Z,99753.53
2022-09-29T03:08:38.470Z,99752.91
2022-09-29T03:11:05.117Z,99748.72
2022-09-29T03:13:31.795Z,99757.59
2022-09-29T03:15:58.318Z,99755.97
2022-09-29T03:18:24.963Z,99753.72
2022-09-29T03:20:54.542Z,99748.94
2022-09-29T03:23:21.693Z,99747.31
2022-09-29T03:25:48.388Z,99750.22
2022-09-29T03:28:16.540Z,99749.78
2022-09-29T03:30:43.631Z,99746.56
2022-09-29T03:33:10.115Z,99747.69
2022-09-29T03:35:36.750Z,99747.06
2022-09-29T03:38:03.274Z,99749.97
2022-09-29T03:40:30.076Z,99756.28
2022-09-29T03:42:56.607Z,99752.09
2022-09-29T03:45:23.213Z,99756.63
2022-09-29T03:47:49.856Z,99756.78
2022-09-29T03:50:16.485Z,99762.09
2022-09-29T03:52:43.055Z,99760.66
2022-09-29T03:55:09.907Z,99764.38
2022-09-29T03:57:36.467Z,99766.94
2022-09-29T04:00:04.093Z,99763.09
2022-09-29T04:02:30.663Z,99760.03
2022-09-29T04:04:57.225Z,99760.53
2022-09-29T04:07:23.760Z,99765.88
2022-09-29T04:09:50.234Z,99758.47
2022-09-29T04:12:16.735Z,99764.59
2022-09-29T04:14:43.404Z,99769.91
2022-09-29T04:17:09.898Z,99773.47
2022-09-29T04:19:36.554Z,99770.88
2022-09-29T04:22:03.074Z,99779.44
2022-09-29T04:24:29.627Z,99784.91
2022-09-29T04:26:57.177Z,99782.66
2022-09-29T04:29:23.718Z,99781.19
2022-09-29T04:31:50.336Z,99783.31
2022-09-29T04:34:19.009Z,99784.44
2022-09-29T04:36:45.883Z,99784.75
2022-09-29T04:39:13.137Z,99794.44
2022-09-29T04:41:41.384Z,99791.38
2022-09-29T04:44:08.067Z,99795.09
2022-09-29T04:46:34.595Z,99790.25
2022-09-29T04:49:01.143Z,99792.50
2022-09-29T04:51:28.622Z,99794.28
2022-09-29T04:53:55.173Z,99788.66
2022-09-29T04:56:21.713Z,99793.19
2022-09-29T04:58:48.278Z,99792.53
2022-09-29T05:01:15.690Z,99803.16
2022-09-29T05:03:43.113Z,99809.13
2022-09-29T05:06:10.338Z,99805.91
2022-09-29T05:08:36.894Z,99809.44
2022-09-29T05:11:08.083Z,99810.53
2022-09-29T05:13:34.956Z,99806.38
2022-09-29T05:16:02.183Z,99814.75
2022-09-29T05:18:29.123Z,99815.38
2022-09-29T05:21:22.907Z,99815.56
2022-09-29T05:23:42.693Z,99818.28
2022-09-29T05:26:10.831Z,99816.69
2022-09-29T05:28:39.360Z,99821.81
2022-09-29T05:31:07.955Z,99820.50
2022-09-29T05:33:35.949Z,99824.06
2022-09-29T05:36:07.271Z,99822.78
2022-09-29T05:38:35.380Z,99838.25
2022-09-29T05:41:11.082Z,99836.31
2022-09-29T05:43:38.522Z,99834.69
2022-09-29T05:46:07.238Z,99846.59
2022-09-29T05:48:34.271Z,99844.84
2022-09-29T05:51:08.279Z,99847.25
2022-09-29T05:53:35.222Z,99850.47
2022-09-29T05:56:09.922Z,99849.16
2022-09-29T05:58:37.043Z,99856.56
2022-09-29T06:01:07.558Z,99858.03
2022-09-29T06:03:35.880Z,99855.91
2022-09-29T06:06:07.022Z,99863.16
2022-09-29T06:08:34.098Z,99857.69
2022-09-29T06:11:09.084Z,99857.38
2022-09-29T06:13:40.565Z,99865.44
2022-09-29T06:16:08.315Z,99862.38
2022-09-29T06:18:35.315Z,99865.41
2022-09-29T06:21:08.016Z,99864.63
2022-09-29T06:23:34.971Z,99869.91
2022-09-29T06:26:04.534Z,99865.22
2022-09-29T06:28:31.776Z,99869.09
2022-09-29T06:31:03.500Z,99878.56
2022-09-29T06:33:31.813Z,99876.16
2022-09-29T06:36:28.830Z,99877.56
2022-09-29T06:38:55.661Z,99884.44
2022-09-29T06:41:22.139Z,99877.69
2022-09-29T06:43:48.653Z,99874.25
2022-09-29T06:46:15.246Z,99883.84
2022-09-29T06:48:41.780Z,99885.47
2022-09-29T06:51:10.546Z,99883.38
2022-09-29T06:53:38.922Z,99888.63
2022-09-29T06:56:06.538Z,99889.28
2022-09-29T06:58:34.041Z,99884.00
2022-09-29T07:01:02.302Z,99881.88
2022-09-29T07:03:29.798Z,99887.03
2022-09-29T07:06:15.564Z,99880.66
2022-09-29T07:08:43.209Z,99878.97
2022-09-29T07:11:10.955Z,99887.66
2022-09-29T07:13:37.997Z,99892.94
2022-09-29T07:16:13.197Z,99891.59
2022-09-29T07:18:41.849Z,99891.28
2022-09-29T07:21:12.065Z,99897.09
2022-09-29T07:23:39.715Z,99900.84
2022-09-29T07:26:07.138Z,99905.19
2022-09-29T07:28:34.654Z,99905.09
2022-09-29T07:31:14.072Z,99912.38
2022-09-29T07:33:42.092Z,99918.47
2022-09-29T07:36:08.743Z,99919.81
2022-09-29T07:38:35.441Z,99918.34
2022-09-29T07:41:08.033Z,99916.66
2022-09-29T07:43:34.854Z,99915.63
2022-09-29T07:46:01.800Z,99916.81
2022-09-29T07:48:31.927Z,99923.97
2022-09-29T07:51:07.771Z,99916.97
2022-09-29T07:53:36.218Z,99920.94
2022-09-29T07:56:18.677Z,99919.53
2022-09-29T07:58:49.879Z,99930.72
2022-09-29T08:01:17.981Z,99929.91
2022-09-29T08:03:49.633Z,99935.91
2022-09-29T08:06:16.193Z,99943.66
2022-09-29T08:08:55.766Z,99943.22
2022-09-29T08:11:31.531Z,99946.22
2022-09-29T08:13:59.728Z,99957.81
2022-09-29T08:16:26.597Z,99957.06
2022-09-29T08:18:53.301Z,99960.34
2022-09-29T08:21:19.831Z,99959.59
2022-09-29T08:23:46.394Z,99958.81
2022-09-29T08:26:15.733Z,99954.69
2022-09-29T08:28:43.552Z,99962.72
2022-09-29T08:31:13.505Z,99963.75
2022-09-29T08:33:40.524Z,99962.97
2022-09-29T08:36:26.114Z,99970.34
2022-09-29T08:38:56.165Z,99973.00
2022-09-29T08:41:32.662Z,99973.81
2022-09-29T08:44:36.790Z,99972.25
2022-09-29T08:47:11.039Z,99972.69
2022-09-29T08:49:42.431Z,99975.31
2022-09-29T08:52:17.063Z,99978.16
2022-09-29T08:54:49.017Z,99986.78
2022-09-29T08:57:19.466Z,99985.84
2022-09-29T08:59:58.225Z,99987.50
2022-09-29T09:02:42.938Z,99996.53
2022-09-29T09:05:51.807Z,99991.00
2022-09-29T09:08:38.325Z,99991.06
2022-09-29T09:11:21.188Z,99989.75
2022-09-29T09:14:07.996Z,99997.59
2022-09-29T09:16:37.392Z,100001.38
2022-09-29T09:19:22.777Z,100000.03
2022-09-29T09:22:16.842Z,100001.44
2022-09-29T09:25:11.004Z,100003.50
2022-09-29T09:27:42.438Z,100006.88
2022-09-29T09:30:20.005Z,100007.09
2022-09-29T09:32:57.922Z,100001.34
2022-09-29T09:35:56.385Z,100008.38
2022-09-29T09:38:33.870Z,100012.56
2022-09-29T09:41:01.452Z,100009.56
2022-09-29T09:43:37.119Z,100006.16
2022-09-29T09:46:40.195Z,100008.59
2022-09-29T09:49:39.478Z,100015.38
2022-09-29T09:52:23.965Z,100011.00
2022-09-29T09:54:54.810Z,100011.78
2022-09-29T09:58:25.535Z,100014.19
2022-09-29T10:01:00.543Z,100011.22
2022-09-29T10:03:29.030Z,100009.41
2022-09-29T10:05:56.645Z,100013.81
2022-09-29T10:08:39.899Z,100013.03
2022-09-29T10:11:31.947Z,100006.81
2022-09-29T10:14:26.490Z,100018.06
2022-09-29T10:17:10.506Z,100017.47
2022-09-29T10:20:02.003Z,100018.22
2022-09-29T10:22:29.889Z,100017.47
2022-09-29T10:25:19.063Z,100019.66
2022-09-29T10:27:57.442Z,100024.25
2022-09-29T10:30:33.235Z,100030.47
2022-09-29T10:33:04.366Z,100026.44
2022-09-29T10:35:37.900Z,100026.44
2022-09-29T10:38:17.338Z,100025.56
2022-09-29T10:40:57.880Z,100025.91
2022-09-29T10:43:27.075Z,100025.88
2022-09-29T10:45:58.604Z,100024.19
2022-09-29T10:48:26.799Z,100022.53
2022-09-29T10:50:58.179Z,100020.09
2022-09-29T10:53:27.466Z,100019.06
2022-09-29T10:55:56.796Z,100023.22
2022-09-29T10:58:52.716Z,100024.56
2022-09-29T11:01:27.497Z,100020.31
2022-09-29T11:04:05.045Z,100023.09
2022-09-29T11:06:32.910Z,100022.97
2022-09-29T11:09:01.826Z,100023.31
2022-09-29T11:11:30.031Z,100024.66
2022-09-29T11:13:57.740Z,100025.66
2022-09-29T11:16:37.152Z,100033.06
2022-09-29T11:19:11.235Z,100025.22
2022-09-29T11:22:03.538Z,100024.22
2022-09-29T11:24:48.943Z,100024.44
2022-09-29T11:27:30.342Z,100025.59
2022-09-29T11:30:07.308Z,100027.94
2022-09-29T11:32:33.834Z,100031.06
2022-09-29T11:35:13.094Z,100028.19
2022-09-29T11:37:58.889Z,100031.41
2022-09-29T11:40:48.783Z,100030.38
2022-09-29T11:43:33.388Z,100033.63
2022-09-29T11:46:22.406Z,100034.88
2022-09-29T11:49:23.117Z,100034.50
2022-09-29T11:51:59.126Z,100030.72
2022-09-29T11:54:51.263Z,100038.50
2022-09-29T11:57:28.824Z,100036.25
2022-09-29T12:00:17.107Z,100032.69
2022-09-29T12:02:46.414Z,100037.84
2022-09-29T12:05:43.061Z,100035.41
2022-09-29T12:08:28.102Z,100027.16
2022-09-29T12:11:23.778Z,100027.16
2022-09-29T12:13:55.568Z,100036.63
2022-09-29T12:16:31.501Z,100031.13
2022-09-29T12:19:19.691Z,100034.28
2022-09-29T12:21:50.458Z,100034.78
2022-09-29T12:24:38.653Z,100040.53
2022-09-29T12:27:31.584Z,100039.78
2022-09-29T12:30:04.233Z,100044.03
2022-09-29T12:33:13.580Z,100046.22
2022-09-29T12:35:48.542Z,100039.88
2022-09-29T12:38:42.190Z,100029.91
2022-09-29T12:41:13.903Z,100043.34
2022-09-29T12:43:58.470Z,100036.44
2022-09-29T12:46:35.784Z,100038.03
2022-09-29T12:49:17.111Z,100047.84
2022-09-29T12:51:48.731Z,100048.03
2022-09-29T12:54:21.344Z,100041.25
2022-09-29T12:56:55.508Z,100040.59
2022-09-29T12:59:40.399Z,100041.56
2022-09-29T13:02:38.221Z,100038.44
2022-09-29T13:05:30.332Z,100034.84
2022-09-29T13:08:21.771Z,100039.91
2022-09-29T13:10:51.329Z,100038.88
2022-09-29T13:13:30.091Z,100042.31
2022-09-29T13:16:22.258Z,100038.66
2022-09-29T13:19:56.237Z,100045.06
2022-09-29T13:22:25.745Z,100051.22
2022-09-29T13:25:01.857Z,100050.56
2022-09-29T13:27:39.685Z,100053.53
2022-09-29T13:30:12.921Z,100050.34
2022-09-29T13:32:42.724Z,100054.25
2022-09-29T13:35:18.867Z,100056.00
2022-09-29T13:38:04.688Z,100057.28
2022-09-29T13:40:32.125Z,100055.59
2022-09-29T13:43:05.518Z,100054.00
2022-09-29T13:45:34.859Z,100061.28
2022-09-29T13:48:30.681Z,100057.28
2022-09-29T13:51:00.599Z,100065.38
2022-09-29T13:53:37.580Z,100065.13
2022-09-29T13:56:04.245Z,100064.56
2022-09-29T13:58:51.115Z,100060.91
2022-09-29T14:01:32.872Z,100064.16
2022-09-29T14:04:37.516Z,100053.69
2022-09-29T14:07:06.413Z,100057.47
2022-09-29T14:09:40.992Z,100063.94
2022-09-29T14:12:21.674Z,100064.16
2022-09-29T14:15:00.446Z,100061.16
2022-09-29T14:17:34.284Z,100069.03
2022-09-29T14:20:20.685Z,100069.16
2022-09-29T14:22:56.028Z,100070.72
2022-09-29T14:25:28.703Z,100073.75
2022-09-29T14:27:58.734Z,100076.66
2022-09-29T14:30:50.931Z,100079.59
2022-09-29T14:33:38.334Z,100086.72
2022-09-29T14:36:10.392Z,100088.34
2022-09-29T14:38:44.846Z,100094.91
2022-09-29T14:41:11.356Z,100096.75
2022-09-29T14:43:46.017Z,100104.38
2022-09-29T14:46:42.940Z,100090.63
2022-09-29T14:49:57.655Z,100099.88
2022-09-29T14:52:58.085Z,100095.44
2022-09-29T14:55:30.499Z,100104.53
2022-09-29T14:58:26.576Z,100098.47
2022-09-29T15:00:54.133Z,100103.56
2022-09-29T15:03:30.438Z,100105.03
2022-09-29T15:06:09.879Z,100099.31
2022-09-29T15:08:37.902Z,100103.97
2022-09-29T15:11:25.985Z,100108.84
2022-09-29T15:13:55.303Z,100107.91
2022-09-29T15:16:31.800Z,100102.94
2022-09-29T15:19:04.142Z,100105.41
2022-09-29T15:21:48.047Z,100110.28
2022-09-29T15:24:17.529Z,100113.19
2022-09-29T15:26:46.549Z,100113.03
2022-09-29T15:29:18.329Z,100113.47
2022-09-29T15:31:48.773Z,100118.13
2022-09-29T15:34:22.119Z,100111.34
2022-09-29T15:36:52.186Z,100121.00
2022-09-29T15:39:43.803Z,100118.25
2022-09-29T15:42:24.695Z,100124.69
2022-09-29T15:44:55.353Z,100119.34
2022-09-29T15:47:26.861Z,100119.19
2022-09-29T15:49:54.486Z,100123.25
2022-09-29T15:52:23.607Z,100116.41
2022-09-29T15:54:55.848Z,100126.88
2022-09-29T15:57:43.570Z,100127.94
2022-09-29T16:00:36.184Z,100130.59
2022-09-29T16:03:27.331Z,100140.13
2022-09-29T16:06:05.843Z,100137.56
2022-09-29T16:08:37.388Z,100143.44
2022-09-29T16:11:14.849Z,100145.88
2022-09-29T16:13:42.205Z,100148.16
2022-09-29T16:16:11.302Z,100143.97
2022-09-29T16:18:44.830Z,100147.38
2022-09-29T16:21:15.328Z,100154.25
2022-09-29T16:23:50.942Z,100156.31
2022-09-29T16:26:40.249Z,100158.94
2022-09-29T16:29:09.544Z,100163.78
2022-09-29T16:31:39.670Z,100169.22
2022-09-29T16:34:26.722Z,100175.06
2022-09-29T16:37:06.636Z,100174.91
2022-09-29T16:39:44.953Z,100177.28
2022-09-29T16:42:28.090Z,100179.47
2022-09-29T16:44:56.143Z,100182.09
2022-09-29T16:47:28.805Z,100189.75
2022-09-29T16:49:58.209Z,100190.56
2022-09-29T16:52:46.489Z,100192.38
2022-09-29T16:55:27.585Z,100192.59
2022-09-29T16:58:00.121Z,100193.38
2022-09-29T17:00:26.974Z,100200.22
2022-09-29T17:02:57.991Z,100203.63
2022-09-29T17:05:25.845Z,100206.22
2022-09-29T17:08:01.204Z,100204.63
2022-09-29T17:10:29.011Z,100215.44
2022-09-29T17:12:55.670Z,100212.22
2022-09-29T17:15:23.176Z,100215.81
2022-09-29T17:17:51.359Z,100216.81
2022-09-29T17:20:20.790Z,100217.78
2022-09-29T17:22:49.117Z,100223.00
2022-09-29T17:25:15.932Z,100218.94
2022-09-29T17:28:02.581Z,100223.50
2022-09-29T17:30:29.191Z,100237.28
2022-09-29T17:32:58.247Z,100226.06
2022-09-29T17:35:29.803Z,100229.63
2022-09-29T17:37:56.641Z,100241.00
2022-09-29T17:40:35.557Z,100247.78
2022-09-29T17:43:02.174Z,100239.72
2022-09-29T17:45:30.135Z,100246.09
2022-09-29T17:47:56.881Z,100248.66
2022-09-29T17:50:38.239Z,100244.03
2022-09-29T17:53:05.325Z,100253.41
2022-09-29T17:55:32.921Z,100254.34
2022-09-29T17:58:01.244Z,100249.72
2022-09-29T18:00:38.830Z,100254.28
2022-09-29T18:03:10.822Z,100262.59
2022-09-29T18:05:41.342Z,100257.97
2022-09-29T18:08:13.627Z,100259.97
2022-09-29T18:10:48.788Z,100255.16
2022-09-29T18:13:15.948Z,100258.50
2022-09-29T18:15:43.755Z,100257.81
2022-09-29T18:18:15.690Z,100270.94
2022-09-29T18:20:45.515Z,100274.09
2022-09-29T18:23:15.210Z,100274.44
2022-09-29T18:25:47.367Z,100280.81
2022-09-29T18:28:15.722Z,100284.38
2022-09-29T18:30:44.412Z,100281.19
2022-09-29T18:33:16.224Z,100294.53
2022-09-29T18:35:45.745Z,100288.91
2022-09-29T18:38:12.708Z,100287.69
2022-09-29T18:40:40.560Z,100291.44
2022-09-29T18:43:07.826Z,100287.63
2022-09-29T18:45:37.471Z,100295.31
2022-09-29T18:48:07.246Z,100300.44
2022-09-29T18:50:43.243Z,100299.38
2022-09-29T18:53:11.395Z,100308.50
2022-09-29T18:55:38.340Z,100310.06
2022-09-29T18:58:05.003Z,100308.91
2022-09-29T19:00:39.445Z,100309.34
2022-09-29T19:03:06.095Z,100310.09
2022-09-29T19:05:34.605Z,100316.25
2022-09-29T19:08:05.895Z,100321.16
2022-09-29T19:10:34.661Z,100322.50
2022-09-29T19:13:08.132Z,100323.03
2022-09-29T19:15:39.893Z,100327.97
2022-09-29T19:18:07.827Z,100328.84
2022-09-29T19:20:35.783Z,100333.59
2022-09-29T19:23:03.541Z,100329.75
2022-09-29T19:25:33.625Z,100338.06
2022-09-29T19:28:04.531Z,100341.97
2022-09-29T19:30:33.467Z,100350.88
2022-09-29T19:33:00.117Z,100351.06
2022-09-29T19:35:29.025Z,100351.41
2022-09-29T19:37:56.849Z,100361.16
2022-09-29T19:40:26.112Z,100359.56
2022-09-29T19:42:53.081Z,100367.50
2022-09-29T19:45:19.772Z,100368.50
2022-09-29T19:47:46.367Z,100367.69
2022-09-29T19:50:35.355Z,100372.41
2022-09-29T19:53:02.009Z,100374.19
2022-09-29T19:55:28.573Z,100380.34
2022-09-29T19:57:55.200Z,100385.72
2022-09-29T20:00:22.885Z,100383.94
2022-09-29T20:02:49.450Z,100386.69
2022-09-29T20:05:16.241Z,100387.69
2022-09-29T20:07:44.185Z,100394.66
2022-09-29T20:10:13.254Z,100390.28
2022-09-29T20:12:42.335Z,100399.66
2022-09-29T20:15:11.892Z,100396.91
2022-09-29T20:17:40.190Z,100395.91
2022-09-29T20:20:09.370Z,100398.34
2022-09-29T20:22:36.493Z,100402.53
2022-09-29T20:25:08.026Z,100405.31
2022-09-29T20:27:37.617Z,100415.03
2022-09-29T20:30:06.491Z,100415.19
2022-09-29T20:32:33.675Z,100422.81
2022-09-29T20:35:00.981Z,100418.41
2022-09-29T20:37:29.091Z,100422.34
2022-09-29T20:39:55.938Z,100428.03
2022-09-29T20:42:22.643Z,100425.63
2022-09-29T20:44:55.019Z,100424.81
2022-09-29T20:47:24.932Z,100427.56
2022-09-29T20:49:55.078Z,100438.91
2022-09-29T20:52:25.601Z,100439.09
2022-09-29T20:54:52.181Z,100445.06
2022-09-29T20:57:18.915Z,100450.25
2022-09-29T20:59:45.536Z,100450.25
2022-09-29T21:02:13.655Z,100453.63
2022-09-29T21:04:42.429Z,100453.34
2022-09-29T21:07:29.391Z,100447.81
2022-09-29T21:09:56.172Z,100453.63
2022-09-29T21:12:22.740Z,100449.09
2022-09-29T21:14:50.282Z,100450.34
2022-09-29T21:17:17.002Z,100458.31
2022-09-29T21:19:43.664Z,100453.94
2022-09-29T21:22:10.531Z,100465.91
2022-09-29T21:24:39.214Z,100460.88
2022-09-29T21:27:07.883Z,100464.13
2022-09-29T21:29:34.762Z,100465.56
2022-09-29T21:32:02.182Z,100473.00
2022-09-29T21:34:29.203Z,100473.44
2022-09-29T21:36:55.708Z,100466.50
2022-09-29T21:39:22.553Z,100478.47
2022-09-29T21:41:49.201Z,100479.91
2022-09-29T21:44:19.097Z,100477.31
2022-09-29T21:46:46.230Z,100480.09
2022-09-29T21:49:14.425Z,100481.88
2022-09-29T21:51:43.864Z,100490.63
2022-09-29T21:54:23.025Z,100484.81
2022-09-29T21:56:50.737Z,100489.00
2022-09-29T21:59:19.556Z,100492.88
2022-09-29T22:01:47.308Z,100499.69
2022-09-29T22:04:14.673Z,100491.09
2022-09-29T22:06:44.822Z,100487.34
2022-09-29T22:09:15.921Z,100489.94
2022-09-29T22:11:42.742Z,100489.75
2022-09-29T22:14:11.079Z,100483.78
2022-09-29T22:16:38.206Z,100483.59
2022-09-29T22:19:32.435Z,100481.97
2022-09-29T22:21:54.140Z,100483.59
2022-09-29T22:24:21.155Z,100476.63
2022-09-29T22:26:47.953Z,100478.41
2022-09-29T22:29:14.570Z,100472.59
2022-09-29T22:31:41.677Z,100479.38
2022-09-29T22:34:08.490Z,100479.38
2022-09-29T22:36:35.162Z,100479.38
2022-09-29T22:39:02.615Z,100488.97
2022-09-29T22:41:29.898Z,100480.19
2022-09-29T22:43:59.262Z,100487.97
2022-09-29T22:46:28.689Z,100488.97
2022-09-29T22:48:56.154Z,100484.75
2022-09-29T22:51:22.722Z,100486.38
2022-09-29T22:53:49.546Z,100489.94
2022-09-29T22:56:19.062Z,100499.50
2022-09-29T22:58:46.232Z,100497.41
2022-09-29T23:01:15.846Z,100486.22
2022-09-29T23:03:44.332Z,100493.38
2022-09-29T23:06:12.085Z,100494.72
2022-09-29T23:08:39.128Z,100488.25
2022-09-29T23:11:08.069Z,100497.38
2022-09-29T23:13:40.606Z,100492.69
2022-09-29T23:16:12.330Z,100487.97
2022-09-29T23:18:44.989Z,100485.88
2022-09-29T23:21:20.590Z,100495.78
2022-09-29T23:23:48.185Z,100493.91
2022-09-29T23:26:15.595Z,100493.22
2022-09-29T23:28:42.236Z,100498.59
2022-09-29T23:31:10.014Z,100491.97
2022-09-29T23:33:36.732Z,100496.69
2022-09-29T23:36:11.233Z,100503.63
2022-09-29T23:38:57.776Z,100500.41
2022-09-29T23:41:27.144Z,100498.97
2022-09-29T23:43:57.272Z,100502.50
2022-09-29T23:46:25.577Z,100508.50
2022-09-29T23:48:52.286Z,100500.59
2022-09-29T23:51:19.044Z,100495.41
2022-09-29T23:53:45.573Z,100503.19
2022-09-29T23:56:12.115Z,100504.31
2022-09-29T23:58:38.672Z,100505.28
